Portada
METAR-TAF:

METAR-TAF

Aeropuertos :

Ambae, Vanuatu

latitud: 15-18-24S, longitud: 167-58-02E, altitud: 51 m

Observación

El informe se hizo hace 2 horas y 41 minutos, a las 09:00 UTC
Viento 3 kt del sur-sureste
Temperatura
Presión 1016 hPa

METAR: NVSG 020900Z AUTO 16003KT //// // NCD ///// Q1016

Hora: 22:41 (11:41 UTC)

Pronóstico

El informe se hizo hace 1 hora y 41 minutos, a las 10:00 UTC
Pronóstico válido del 02 a las 12 UTC al 03 a las 12 UTC
Viento 3 kt con dirección variable
Visibilidad 10 km o más
Nubes dispersas a una altura de 2000 ft
Probabilidad 40%
entre IN y TE UTC
Visibilidad: 9000 m
Cielo nuboso a una altura de 1800 ft
chaparrones de lluvia

TAF: NVSG 021000Z 0212/0312 VRB03KT 9999 SCT020 PROB40 INTER 0212/0218 9000 -SHRA BKN018

Observaciones y pronósticos meteorológicos de más de 4000 aeropuertos (mensajes METAR y TAF).

Los puntos amarillos y rojos representan las estaciones disponibles.

Ponga el ratón en el punto deseado para ver el nombre de la estación.

Haga clic para ver las observaciones y los pronósticos meteorológicos.

Para cambiar el mapa : haga clic en los botones verdes con una cruz de color negro para hacer un zoom, en el botón verde con un guión para alejar o en las flechas verdes para mapas adyacentes.


METAR-TAF: